Time;durP1;ratioP1;P1;durP2;ratioP2;P2;SDS_P1;SDS_P2;PMS_P1;PMS_P2;Temp;Humidity;BMP_temperature;BMP_pressure;BME280_temperature;BME280_humidity;BME280_pressure;Samples;Min_cycle;Max_cycle;Signal;HPM_P1;HPM_P2
2023/07/03 00:00:51;;;;;;;;;;;16.10;99.90;;;;;;5047951;28;19984;-70
2023/07/03 00:03:18;;;;;;;;;;;16.00;99.90;;;;;;5062654;28;19931;-72
2023/07/03 00:05:46;;;;;;;;;;;16.00;99.90;;;;;;5062317;28;19956;-70
2023/07/03 00:08:13;;;;;;;;;;;16.00;99.90;;;;;;5066574;28;19936;-70
2023/07/03 00:10:40;;;;;;;;;;;16.00;99.90;;;;;;5066375;28;20283;-71
2023/07/03 00:13:06;;;;;;;;;;;15.90;99.90;;;;;;5066186;28;19996;-71
2023/07/03 00:15:33;;;;;;;;;;;15.80;99.90;;;;;;5066213;28;19988;-70
2023/07/03 00:18:01;;;;;;;;;;;15.80;99.90;;;;;;5066130;28;19927;-70
2023/07/03 00:20:28;;;;;;;;;;;15.80;99.90;;;;;;5066321;28;20111;-70
2023/07/03 00:22:55;;;;;;;;;;;15.80;99.90;;;;;;5066225;28;19962;-70
2023/07/03 00:25:21;;;;;;;;;;;15.80;99.90;;;;;;5066071;28;19952;-70
2023/07/03 00:27:48;;;;;;;;;;;15.80;99.90;;;;;;5065900;28;20201;-70
2023/07/03 00:30:15;;;;;;;;;;;15.80;99.90;;;;;;5066005;28;19920;-70
2023/07/03 00:32:42;;;;;;;;;;;15.80;99.90;;;;;;5065969;28;20231;-70
2023/07/03 00:35:10;;;;;;;;;;;15.70;99.90;;;;;;5066056;28;19959;-70
2023/07/03 00:37:36;;;;;;;;;;;15.80;99.90;;;;;;5065796;28;19988;-70
2023/07/03 00:40:06;;;;;;;;;;;15.70;99.90;;;;;;5060349;28;19927;-70
2023/07/03 00:42:33;;;;;;;;;;;15.70;99.90;;;;;;5045934;28;19929;-70
2023/07/03 00:44:59;;;;;;;;;;;15.70;99.90;;;;;;5045752;28;19927;-70
2023/07/03 00:47:26;;;;;;;;;;;15.70;99.90;;;;;;5062262;28;19984;-70
2023/07/03 00:49:53;;;;;;;;;;;15.60;99.90;;;;;;5065941;28;19943;-70
2023/07/03 00:52:21;;;;;;;;;;;15.60;99.90;;;;;;5065847;28;19921;-71
2023/07/03 00:54:48;;;;;;;;;;;15.50;99.90;;;;;;5064084;28;19925;-70
2023/07/03 00:57:16;;;;;;;;;;;15.50;99.90;;;;;;5060400;28;19988;-70
2023/07/03 00:59:43;;;;;;;;;;;15.60;99.90;;;;;;5065498;28;19925;-71
2023/07/03 01:02:11;;;;;;;;;;;15.50;99.90;;;;;;5056216;28;20221;-71
2023/07/03 01:04:40;;;;;;;;;;;15.60;99.90;;;;;;5057398;28;19928;-70
2023/07/03 01:07:08;;;;;;;;;;;15.50;99.90;;;;;;5058615;28;20205;-70
2023/07/03 01:09:38;;;;;;;;;;;15.60;99.90;;;;;;5065365;28;19984;-70
2023/07/03 01:12:05;;;;;;;;;;;15.60;99.90;;;;;;5064976;28;20230;-70
2023/07/03 01:14:34;;;;;;;;;;;15.60;99.90;;;;;;5065357;28;19921;-70
2023/07/03 01:17:02;;;;;;;;;;;15.50;99.90;;;;;;5064581;28;19927;-71
2023/07/03 01:19:31;;;;;;;;;;;15.60;99.90;;;;;;5064347;28;19955;-70
2023/07/03 01:22:02;;;;;;;;;;;15.60;99.90;;;;;;5064849;28;19983;-70
2023/07/03 01:24:32;;;;;;;;;;;15.50;99.90;;;;;;5064753;28;19921;-71
2023/07/03 01:27:00;;;;;;;;;;;15.50;99.90;;;;;;5064840;28;19980;-70
2023/07/03 01:29:27;;;;;;;;;;;15.50;99.90;;;;;;5065112;28;19921;-70
2023/07/03 01:31:55;;;;;;;;;;;15.50;99.90;;;;;;5065055;28;19989;-70
2023/07/03 01:34:21;;;;;;;;;;;15.50;99.90;;;;;;5065111;28;19980;-70
2023/07/03 01:36:49;;;;;;;;;;;15.40;99.90;;;;;;5064237;28;20284;-70
2023/07/03 01:39:16;;;;;;;;;;;15.40;99.90;;;;;;5064940;28;19928;-71
2023/07/03 01:41:44;;;;;;;;;;;15.40;99.90;;;;;;5064685;28;19921;-71
2023/07/03 01:44:10;;;;;;;;;;;15.40;99.90;;;;;;5064838;28;19927;-71
2023/07/03 01:46:39;;;;;;;;;;;15.30;99.90;;;;;;5063486;28;20277;-70
2023/07/03 01:49:11;;;;;;;;;;;15.30;99.90;;;;;;5064777;28;19927;-71
2023/07/03 01:51:39;;;;;;;;;;;15.30;99.90;;;;;;5064596;28;19921;-70
2023/07/03 01:54:10;;;;;;;;;;;15.20;99.90;;;;;;5060769;28;19921;-72
2023/07/03 01:56:39;;;;;;;;;;;15.20;99.90;;;;;;5052711;28;19928;-69
2023/07/03 01:59:08;;;;;;;;;;;15.10;99.90;;;;;;5044648;28;19921;-70
2023/07/03 02:01:41;;;;;;;;;;;15.10;99.90;;;;;;5046278;28;19964;-70
2023/07/03 02:04:10;;;;;;;;;;;15.10;99.90;;;;;;5056564;28;19920;-70
2023/07/03 02:06:38;;;;;;;;;;;15.00;99.90;;;;;;5055561;28;19953;-70
2023/07/03 02:09:06;;;;;;;;;;;15.00;99.90;;;;;;5044158;28;19963;-71
2023/07/03 02:11:32;;;;;;;;;;;15.00;99.90;;;;;;5044477;28;19921;-73
2023/07/03 02:14:00;;;;;;;;;;;15.00;99.90;;;;;;5044327;28;20202;-70
2023/07/03 02:16:29;;;;;;;;;;;15.00;99.90;;;;;;5050748;28;19924;-70
2023/07/03 02:18:59;;;;;;;;;;;15.00;99.90;;;;;;5063721;28;19966;-71
2023/07/03 02:21:27;;;;;;;;;;;14.90;99.90;;;;;;5064054;28;19967;-71
2023/07/03 02:23:53;;;;;;;;;;;14.90;99.90;;;;;;5064121;28;19987;-71
2023/07/03 02:26:25;;;;;;;;;;;14.90;99.90;;;;;;5063490;28;19956;-71
2023/07/03 06:10:08;;;;;;;;;;;17.20;99.90;;;;;;5060056;28;19973;-71
2023/07/03 06:12:34;;;;;;;;;;;17.30;99.90;;;;;;5060383;28;19948;-72
2023/07/03 06:15:01;;;;;;;;;;;17.30;99.90;;;;;;5063887;28;19927;-72
2023/07/03 06:17:29;;;;;;;;;;;17.40;99.90;;;;;;5061269;28;20291;-72
2023/07/03 06:19:56;;;;;;;;;;;17.50;99.90;;;;;;5064130;28;19993;-71
2023/07/03 06:22:23;;;;;;;;;;;17.60;99.90;;;;;;5087693;23;20007;-68
2023/07/03 06:24:49;;;;;;;;;;;17.60;99.90;;;;;;5075960;28;19928;-66
2023/07/03 06:27:17;;;;;;;;;;;17.60;99.90;;;;;;5077418;28;20090;-67
2023/07/03 06:29:44;;;;;;;;;;;17.70;99.90;;;;;;5074395;28;19980;-65
2023/07/03 06:32:11;;;;;;;;;;;17.70;99.90;;;;;;5083719;28;19983;-66
2023/07/03 06:34:39;;;;;;;;;;;17.80;99.90;;;;;;5083509;28;19963;-66
2023/07/03 06:37:06;;;;;;;;;;;17.90;99.90;;;;;;5083345;28;19927;-66
2023/07/03 06:39:32;;;;;;;;;;;17.90;99.90;;;;;;5053967;28;19921;-68
2023/07/03 06:41:59;;;;;;;;;;;18.00;99.90;;;;;;5048751;28;20000;-66
2023/07/03 06:44:27;;;;;;;;;;;18.00;99.90;;;;;;5083426;28;19920;-66
2023/07/03 06:46:54;;;;;;;;;;;18.10;99.90;;;;;;5083703;28;19995;-66
2023/07/03 06:49:22;;;;;;;;;;;18.20;99.90;;;;;;5067789;28;19988;-66
2023/07/03 06:51:49;;;;;;;;;;;18.20;99.90;;;;;;5063483;28;19921;-66
2023/07/03 06:54:16;;;;;;;;;;;18.30;99.90;;;;;;5063600;28;20164;-67
2023/07/03 06:56:42;;;;;;;;;;;18.40;99.90;;;;;;5063226;28;19921;-69
2023/07/03 06:59:09;;;;;;;;;;;18.40;99.90;;;;;;5042931;28;20131;-70
2023/07/03 07:01:37;;;;;;;;;;;18.40;99.90;;;;;;5057927;28;19921;-69
2023/07/03 07:04:04;;;;;;;;;;;18.50;99.90;;;;;;5063533;28;19920;-70
2023/07/03 07:06:31;;;;;;;;;;;18.60;99.90;;;;;;5063448;28;19925;-69
2023/07/03 07:09:00;;;;;;;;;;;18.70;99.90;;;;;;5062772;28;19927;-69
2023/07/03 07:11:28;;;;;;;;;;;18.80;99.90;;;;;;5059459;28;19920;-69
2023/07/03 07:13:56;;;;;;;;;;;18.80;99.90;;;;;;5062213;28;19983;-70
2023/07/03 07:16:23;;;;;;;;;;;18.90;99.90;;;;;;5062127;28;19927;-69
2023/07/03 07:18:53;;;;;;;;;;;18.90;99.90;;;;;;5062887;28;19984;-69
2023/07/03 07:21:20;;;;;;;;;;;18.90;99.90;;;;;;5043666;28;19921;-70
2023/07/03 07:23:49;;;;;;;;;;;18.90;99.90;;;;;;5043401;28;19921;-69
2023/07/03 07:26:16;;;;;;;;;;;18.90;99.90;;;;;;5042484;28;19921;-69
2023/07/03 07:28:42;;;;;;;;;;;19.00;99.90;;;;;;5052057;28;19921;-70
2023/07/03 07:31:09;;;;;;;;;;;19.10;99.90;;;;;;5061171;28;20784;-70
2023/07/03 07:33:35;;;;;;;;;;;19.10;99.90;;;;;;5054451;28;19956;-70
2023/07/03 07:36:04;;;;;;;;;;;19.20;99.90;;;;;;5042802;28;19928;-71
2023/07/03 07:38:30;;;;;;;;;;;19.30;99.90;;;;;;5065703;28;19927;-70
2023/07/03 07:41:01;;;;;;;;;;;19.30;99.90;;;;;;5082714;28;20007;-70
2023/07/03 07:43:28;;;;;;;;;;;19.40;99.90;;;;;;5067451;28;19920;-70
2023/07/03 07:46:03;;;;;;;;;;;19.50;99.90;;;;;;5061809;28;19935;-70
2023/07/03 07:48:30;;;;;;;;;;;19.50;99.90;;;;;;5062713;28;19987;-71
2023/07/03 07:50:57;;;;;;;;;;;19.60;99.90;;;;;;5047533;28;19921;-71
2023/07/03 07:53:26;;;;;;;;;;;19.70;99.90;;;;;;5043002;28;20184;-70
2023/07/03 07:55:52;;;;;;;;;;;19.80;99.90;;;;;;5065357;28;19920;-70
2023/07/03 07:58:19;;;;;;;;;;;19.90;99.90;;;;;;5058819;28;19921;-67
2023/07/03 08:00:50;;;;;;;;;;;19.90;99.90;;;;;;5060349;28;19943;-67
2023/07/03 08:03:17;;;;;;;;;;;20.00;99.90;;;;;;5062518;28;19927;-66
2023/07/03 08:05:43;;;;;;;;;;;20.00;99.90;;;;;;5062652;28;19992;-67
2023/07/03 08:08:10;;;;;;;;;;;19.90;99.90;;;;;;5062335;28;20000;-68
2023/07/03 08:10:38;;;;;;;;;;;19.90;99.90;;;;;;5062805;28;19936;-66
2023/07/03 08:13:04;;;;;;;;;;;19.90;99.90;;;;;;5057634;28;19991;-66
2023/07/03 08:15:31;;;;;;;;;;;19.70;99.90;;;;;;5057432;28;19927;-67
2023/07/03 08:17:58;;;;;;;;;;;19.70;99.90;;;;;;5062119;28;20334;-67
2023/07/03 08:20:25;;;;;;;;;;;19.60;99.90;;;;;;5048454;28;19944;-70
2023/07/03 08:22:51;;;;;;;;;;;19.50;99.90;;;;;;5042421;28;19976;-70
2023/07/03 08:25:18;;;;;;;;;;;19.50;99.90;;;;;;5041970;28;19921;-68
2023/07/03 08:27:47;;;;;;;;;;;19.60;99.90;;;;;;5043676;28;20263;-68
2023/07/03 08:30:14;;;;;;;;;;;19.80;99.90;;;;;;5058209;28;19921;-68
2023/07/03 08:32:43;;;;;;;;;;;20.00;99.90;;;;;;5066079;28;19998;-69
2023/07/03 08:35:10;;;;;;;;;;;20.10;99.90;;;;;;5066084;28;19921;-68
2023/07/03 08:37:36;;;;;;;;;;;20.10;99.90;;;;;;5065616;28;19988;-67
2023/07/03 08:40:05;;;;;;;;;;;20.10;99.90;;;;;;5051221;28;19980;-69
2023/07/03 08:42:33;;;;;;;;;;;20.10;99.90;;;;;;5046078;28;19921;-69
2023/07/03 08:45:02;;;;;;;;;;;20.10;99.90;;;;;;5056738;28;19952;-70
2023/07/03 08:47:30;;;;;;;;;;;20.10;99.90;;;;;;5057326;28;19984;-68
2023/07/03 08:49:58;;;;;;;;;;;20.10;99.90;;;;;;5045523;28;19989;-68
2023/07/03 08:52:27;;;;;;;;;;;20.20;99.90;;;;;;5059120;28;19961;-67
2023/07/03 08:54:54;;;;;;;;;;;20.30;99.90;;;;;;5063954;28;19952;-68
2023/07/03 08:57:21;;;;;;;;;;;20.30;99.90;;;;;;5059523;28;19979;-69
2023/07/03 08:59:48;;;;;;;;;;;20.30;99.90;;;;;;5060979;28;19971;-67
2023/07/03 09:02:20;;;;;;;;;;;20.30;99.90;;;;;;5061344;28;19921;-68
2023/07/03 09:04:53;;;;;;;;;;;20.30;99.90;;;;;;5064980;28;20156;-68
2023/07/03 09:07:25;;;;;;;;;;;20.20;99.90;;;;;;5064886;28;19928;-67
2023/07/03 09:09:56;;;;;;;;;;;20.10;99.90;;;;;;5065431;28;19928;-68
2023/07/03 09:12:25;;;;;;;;;;;20.10;99.90;;;;;;5059926;28;19952;-69
2023/07/03 09:14:55;;;;;;;;;;;20.20;99.90;;;;;;5045358;28;19921;-68
2023/07/03 09:17:23;;;;;;;;;;;20.30;99.90;;;;;;5052793;28;19980;-67
2023/07/03 09:19:51;;;;;;;;;;;20.40;99.90;;;;;;5064958;28;19980;-67
2023/07/03 09:22:23;;;;;;;;;;;20.40;99.90;;;;;;5064675;28;19921;-68
2023/07/03 09:24:50;;;;;;;;;;;20.20;99.90;;;;;;5063910;28;19988;-69
2023/07/03 09:27:19;;;;;;;;;;;20.30;99.90;;;;;;5064164;28;19920;-68
2023/07/03 09:29:46;;;;;;;;;;;20.30;99.90;;;;;;5064159;28;19944;-69
2023/07/03 09:32:13;;;;;;;;;;;20.20;99.90;;;;;;5064753;28;20085;-68
2023/07/03 09:35:05;;;;;;;;;;;20.30;99.90;;;;;;5064649;28;19920;-66
2023/07/03 09:37:31;;;;;;;;;;;20.30;99.90;;;;;;5064677;28;19920;-68
2023/07/03 09:39:58;;;;;;;;;;;20.40;99.90;;;;;;5063761;28;19979;-67
2023/07/03 09:42:26;;;;;;;;;;;20.50;99.90;;;;;;5064715;28;19920;-67
2023/07/03 09:44:53;;;;;;;;;;;20.40;99.90;;;;;;5046821;28;19921;-67
2023/07/03 09:47:21;;;;;;;;;;;20.50;99.90;;;;;;5064203;28;19952;-68
2023/07/03 09:49:48;;;;;;;;;;;20.60;99.90;;;;;;5064399;28;19925;-69
2023/07/03 09:52:17;;;;;;;;;;;20.70;99.90;;;;;;5064426;28;20235;-67
2023/07/03 09:54:47;;;;;;;;;;;20.90;99.90;;;;;;5063398;28;19959;-67
2023/07/03 09:57:23;;;;;;;;;;;21.00;99.90;;;;;;5063092;28;20007;-67
2023/07/03 09:59:49;;;;;;;;;;;21.20;99.90;;;;;;5063910;28;19921;-68
2023/07/03 10:02:17;;;;;;;;;;;21.30;99.90;;;;;;5064401;28;19959;-67
2023/07/03 10:04:44;;;;;;;;;;;21.30;99.90;;;;;;5064287;28;19963;-68
2023/07/03 10:07:14;;;;;;;;;;;21.30;99.90;;;;;;5064351;28;19920;-67
2023/07/03 10:09:43;;;;;;;;;;;21.20;99.90;;;;;;5064464;28;20100;-68
2023/07/03 10:12:14;;;;;;;;;;;21.20;99.90;;;;;;5050876;28;19921;-68
2023/07/03 10:14:44;;;;;;;;;;;21.20;99.90;;;;;;5044223;28;19922;-67
2023/07/03 10:17:13;;;;;;;;;;;21.10;99.90;;;;;;5044104;28;19929;-68
2023/07/03 10:19:41;;;;;;;;;;;21.10;99.90;;;;;;5044371;28;19921;-68
2023/07/03 10:22:09;;;;;;;;;;;21.20;99.90;;;;;;5043898;28;19983;-68
2023/07/03 10:24:36;;;;;;;;;;;21.30;99.90;;;;;;5043470;28;19921;-66
2023/07/03 10:27:04;;;;;;;;;;;21.40;99.90;;;;;;5043236;28;19924;-67
2023/07/03 10:29:33;;;;;;;;;;;21.50;99.90;;;;;;5043469;28;19960;-68
2023/07/03 10:32:03;;;;;;;;;;;21.60;99.90;;;;;;5043015;28;19921;-69
2023/07/03 10:34:33;;;;;;;;;;;21.50;99.90;;;;;;5043340;28;19921;-68
2023/07/03 10:37:01;;;;;;;;;;;21.40;99.90;;;;;;5043213;28;19956;-69
2023/07/03 10:39:32;;;;;;;;;;;21.40;99.90;;;;;;5044434;28;19921;-66
2023/07/03 10:42:03;;;;;;;;;;;21.20;99.90;;;;;;5063066;28;19987;-68
2023/07/03 10:44:33;;;;;;;;;;;21.30;99.90;;;;;;5062753;28;19927;-67
2023/07/03 10:47:00;;;;;;;;;;;21.60;99.90;;;;;;5063088;28;19942;-71
2023/07/03 10:49:29;;;;;;;;;;;21.70;99.90;;;;;;5046261;28;19927;-69
2023/07/03 10:52:03;;;;;;;;;;;21.70;99.90;;;;;;5043307;28;19928;-69
2023/07/03 10:54:31;;;;;;;;;;;21.90;99.90;;;;;;5063615;28;20107;-69
2023/07/03 10:57:00;;;;;;;;;;;22.00;99.90;;;;;;5062576;28;20335;-69
2023/07/03 10:59:28;;;;;;;;;;;22.30;99.90;;;;;;5063388;28;20147;-69
2023/07/03 11:02:03;;;;;;;;;;;22.30;99.90;;;;;;5063385;28;19953;-69
2023/07/03 11:04:33;;;;;;;;;;;22.30;99.90;;;;;;5063504;28;19928;-70
2023/07/03 11:07:03;;;;;;;;;;;22.30;99.90;;;;;;5062575;28;19984;-69
2023/07/03 11:09:34;;;;;;;;;;;22.10;99.90;;;;;;5062694;28;19925;-68
2023/07/03 11:12:03;;;;;;;;;;;22.20;99.90;;;;;;5062562;28;19927;-68
2023/07/03 11:14:34;;;;;;;;;;;22.00;99.90;;;;;;5061572;28;19921;-69
2023/07/03 11:17:06;;;;;;;;;;;21.80;99.90;;;;;;5062432;28;19927;-68
2023/07/03 11:19:36;;;;;;;;;;;21.90;99.90;;;;;;5062276;28;19988;-68
2023/07/03 11:22:06;;;;;;;;;;;22.00;99.90;;;;;;5001013;28;1745286;-70
2023/07/03 11:24:37;;;;;;;;;;;22.30;99.90;;;;;;5063059;28;20227;-69
2023/07/03 11:27:07;;;;;;;;;;;22.40;99.90;;;;;;5063035;28;20176;-68
2023/07/03 11:29:35;;;;;;;;;;;22.40;99.90;;;;;;5061862;28;20232;-68
2023/07/03 11:32:05;;;;;;;;;;;22.40;99.90;;;;;;5062515;28;19921;-69
2023/07/03 11:34:33;;;;;;;;;;;22.50;99.90;;;;;;5062771;28;20232;-70
2023/07/03 11:36:59;;;;;;;;;;;22.70;99.90;;;;;;5062626;28;19920;-71
2023/07/03 11:39:28;;;;;;;;;;;23.00;99.90;;;;;;5062793;28;19992;-69
2023/07/03 11:41:56;;;;;;;;;;;23.10;99.90;;;;;;5062779;28;19920;-69
2023/07/03 11:44:39;;;;;;;;;;;22.70;99.90;;;;;;5062608;28;19937;-70
2023/07/03 11:47:08;;;;;;;;;;;22.60;99.90;;;;;;5062468;28;19927;-69
2023/07/03 11:49:36;;;;;;;;;;;22.90;99.90;;;;;;5062435;28;19988;-69
2023/07/03 11:52:04;;;;;;;;;;;23.00;99.90;;;;;;5062352;28;20235;-70
2023/07/03 11:54:32;;;;;;;;;;;23.10;99.90;;;;;;5062770;28;20246;-70
2023/07/03 11:57:00;;;;;;;;;;;22.90;99.90;;;;;;5062876;28;20147;-71
2023/07/03 11:59:31;;;;;;;;;;;22.70;99.90;;;;;;5063068;28;19980;-70
2023/07/03 12:02:13;;;;;;;;;;;22.60;99.90;;;;;;5063010;28;19999;-70
2023/07/03 12:04:50;;;;;;;;;;;22.80;99.90;;;;;;5053456;28;20004;-70
2023/07/03 12:07:32;;;;;;;;;;;22.90;99.90;;;;;;5066252;28;19959;-72
2023/07/03 12:10:13;;;;;;;;;;;22.80;99.90;;;;;;5065656;28;20117;-69
2023/07/03 12:12:40;;;;;;;;;;;22.70;99.90;;;;;;5066053;28;19952;-70
2023/07/03 12:15:12;;;;;;;;;;;22.80;99.90;;;;;;5066575;28;19952;-69
2023/07/03 12:17:40;;;;;;;;;;;23.10;99.90;;;;;;5066160;28;19988;-70
2023/07/03 12:20:10;;;;;;;;;;;23.10;99.90;;;;;;5066710;28;20104;-69
2023/07/03 12:22:38;;;;;;;;;;;23.30;99.90;;;;;;5066138;28;19921;-70
2023/07/03 12:25:05;;;;;;;;;;;23.50;99.90;;;;;;5066086;28;19920;-70
2023/07/03 12:27:32;;;;;;;;;;;23.60;99.90;;;;;;5066194;28;19997;-70
2023/07/03 12:29:59;;;;;;;;;;;23.50;99.90;;;;;;5066164;28;19921;-69
2023/07/03 12:32:27;;;;;;;;;;;23.60;99.90;;;;;;5066175;28;19920;-71
2023/07/03 12:34:53;;;;;;;;;;;23.80;99.90;;;;;;5066239;28;19984;-71
2023/07/03 12:37:24;;;;;;;;;;;23.90;99.90;;;;;;5065677;28;19927;-70
2023/07/03 12:39:51;;;;;;;;;;;23.90;99.90;;;;;;5066158;28;19921;-71
2023/07/03 12:42:22;;;;;;;;;;;23.80;99.90;;;;;;5066100;28;19927;-71
2023/07/03 12:44:48;;;;;;;;;;;23.50;99.90;;;;;;5064934;28;19921;-70
2023/07/03 12:47:16;;;;;;;;;;;23.60;99.90;;;;;;5065002;28;19988;-70
2023/07/03 12:49:55;;;;;;;;;;;23.70;99.90;;;;;;5063858;28;19921;-70
2023/07/03 12:52:23;;;;;;;;;;;24.00;99.90;;;;;;5065585;28;20350;-70
2023/07/03 12:54:50;;;;;;;;;;;24.20;99.90;;;;;;5064952;28;20112;-70
2023/07/03 12:57:17;;;;;;;;;;;24.40;99.90;;;;;;5045156;28;19992;-70
2023/07/03 12:59:46;;;;;;;;;;;24.60;99.90;;;;;;5057980;28;19920;-70
2023/07/03 13:02:13;;;;;;;;;;;24.80;99.90;;;;;;5065681;28;19931;-70
2023/07/03 13:04:39;;;;;;;;;;;24.90;99.80;;;;;;5065540;28;19921;-71
2023/07/03 13:07:06;;;;;;;;;;;25.00;99.90;;;;;;5065212;28;19964;-73
2023/07/03 13:09:34;;;;;;;;;;;24.80;99.60;;;;;;5065635;28;19920;-69
2023/07/03 13:12:05;;;;;;;;;;;24.60;99.90;;;;;;5065581;28;20094;-70
2023/07/03 13:14:31;;;;;;;;;;;24.60;99.90;;;;;;5065143;28;19966;-70
2023/07/03 13:16:59;;;;;;;;;;;24.70;99.90;;;;;;5065264;28;20400;-70
2023/07/03 13:19:27;;;;;;;;;;;24.70;99.90;;;;;;5065741;28;19996;-71
2023/07/03 13:21:54;;;;;;;;;;;24.80;99.90;;;;;;5058672;28;20201;-70
2023/07/03 13:24:23;;;;;;;;;;;24.50;99.90;;;;;;5084409;28;20238;-70
2023/07/03 13:26:51;;;;;;;;;;;24.30;99.90;;;;;;5064884;28;20269;-70
2023/07/03 13:29:22;;;;;;;;;;;24.50;99.90;;;;;;5053115;28;19929;-71
2023/07/03 13:31:49;;;;;;;;;;;24.60;99.90;;;;;;5050061;28;19948;-70
2023/07/03 13:34:18;;;;;;;;;;;24.60;99.90;;;;;;5061178;28;19952;-70
2023/07/03 13:36:45;;;;;;;;;;;24.70;99.90;;;;;;5062365;28;20120;-70
2023/07/03 13:39:13;;;;;;;;;;;24.80;99.90;;;;;;5076538;28;19920;-71
2023/07/03 13:41:41;;;;;;;;;;;24.90;99.90;;;;;;5084838;28;19920;-73
2023/07/03 13:44:10;;;;;;;;;;;25.00;99.90;;;;;;5084975;28;19927;-70
2023/07/03 13:46:37;;;;;;;;;;;24.80;99.90;;;;;;5084822;28;19928;-71
2023/07/03 13:49:04;;;;;;;;;;;24.80;99.90;;;;;;5084496;28;20207;-71
2023/07/03 13:51:31;;;;;;;;;;;25.00;99.90;;;;;;5084903;28;19927;-71
2023/07/03 13:53:58;;;;;;;;;;;25.20;99.90;;;;;;5084594;28;19988;-70
2023/07/03 13:56:24;;;;;;;;;;;25.30;99.70;;;;;;5071965;28;19987;-71
2023/07/03 13:58:51;;;;;;;;;;;25.20;99.60;;;;;;5064149;28;20361;-71
2023/07/03 14:01:20;;;;;;;;;;;24.90;99.80;;;;;;5064352;28;19956;-70
2023/07/03 14:03:46;;;;;;;;;;;24.90;99.70;;;;;;5064659;28;19920;-71
2023/07/03 14:06:13;;;;;;;;;;;24.40;98.90;;;;;;5064342;28;19943;-70
2023/07/03 14:08:40;;;;;;;;;;;23.70;99.60;;;;;;5064059;28;19958;-70
2023/07/03 14:11:10;;;;;;;;;;;23.50;99.90;;;;;;5064449;28;19956;-69
2023/07/03 14:13:36;;;;;;;;;;;23.20;99.90;;;;;;5064124;28;20120;-71
2023/07/03 14:16:03;;;;;;;;;;;23.30;99.90;;;;;;5064335;28;19925;-70
2023/07/03 14:18:31;;;;;;;;;;;23.40;99.70;;;;;;5064255;28;20039;-71
2023/07/03 14:20:58;;;;;;;;;;;23.20;99.00;;;;;;5064194;28;19920;-70
2023/07/03 14:23:24;;;;;;;;;;;23.10;99.30;;;;;;5064077;28;19964;-70
2023/07/03 14:25:51;;;;;;;;;;;23.20;98.50;;;;;;5063397;28;19956;-70
2023/07/03 14:28:18;;;;;;;;;;;23.40;98.80;;;;;;5064047;28;19962;-70
2023/07/03 14:30:44;;;;;;;;;;;23.50;98.40;;;;;;5063857;28;20264;-70
2023/07/03 14:33:11;;;;;;;;;;;23.70;98.50;;;;;;5064141;28;19984;-70
2023/07/03 14:35:39;;;;;;;;;;;24.20;98.40;;;;;;5063816;28;19920;-69
2023/07/03 14:38:06;;;;;;;;;;;24.40;98.00;;;;;;5063333;28;20181;-72
2023/07/03 14:40:32;;;;;;;;;;;24.20;98.10;;;;;;5064077;28;19928;-69
2023/07/03 14:42:59;;;;;;;;;;;24.10;97.90;;;;;;5062708;28;20112;-69
2023/07/03 14:45:26;;;;;;;;;;;24.00;98.30;;;;;;5050222;28;19921;-70
2023/07/03 14:47:52;;;;;;;;;;;24.00;98.30;;;;;;5043573;28;19921;-69
2023/07/03 14:50:19;;;;;;;;;;;24.10;98.70;;;;;;5043948;28;19980;-69
2023/07/03 14:52:47;;;;;;;;;;;24.40;98.20;;;;;;5043756;28;19927;-70
2023/07/03 14:55:15;;;;;;;;;;;24.60;97.90;;;;;;5043817;28;19992;-70
2023/07/03 14:57:42;;;;;;;;;;;24.90;97.70;;;;;;5043460;28;19928;-70
2023/07/03 15:00:10;;;;;;;;;;;25.00;97.70;;;;;;5043388;28;20260;-69
2023/07/03 15:02:36;;;;;;;;;;;25.00;96.10;;;;;;5043542;28;20176;-67
2023/07/03 15:05:03;;;;;;;;;;;24.70;96.30;;;;;;5060818;28;19927;-67
2023/07/03 15:07:30;;;;;;;;;;;24.40;96.80;;;;;;5063379;28;19956;-67
2023/07/03 15:09:58;;;;;;;;;;;24.10;97.00;;;;;;5063510;28;19984;-66
2023/07/03 15:12:24;;;;;;;;;;;23.90;97.40;;;;;;5063074;28;19921;-67
2023/07/03 15:14:51;;;;;;;;;;;23.70;97.80;;;;;;5063135;28;19921;-67
2023/07/03 15:17:18;;;;;;;;;;;23.50;97.90;;;;;;5063065;28;19920;-67
2023/07/03 15:19:44;;;;;;;;;;;23.30;98.40;;;;;;5063161;28;19921;-67
2023/07/03 15:22:11;;;;;;;;;;;23.10;98.50;;;;;;5062896;28;20027;-67
2023/07/03 15:24:38;;;;;;;;;;;22.90;99.20;;;;;;5063272;28;19927;-66
2023/07/03 15:27:07;;;;;;;;;;;22.80;99.70;;;;;;5062817;28;20093;-66
2023/07/03 15:29:33;;;;;;;;;;;22.80;99.90;;;;;;5063117;28;20208;-67
2023/07/03 15:32:00;;;;;;;;;;;22.80;99.90;;;;;;5063340;28;19984;-66
2023/07/03 15:34:27;;;;;;;;;;;22.70;99.90;;;;;;5063233;28;19980;-66
2023/07/03 15:36:54;;;;;;;;;;;22.70;99.90;;;;;;5053729;28;19921;-66
2023/07/03 15:39:21;;;;;;;;;;;22.70;99.90;;;;;;5064579;28;20278;-67
2023/07/03 15:41:48;;;;;;;;;;;23.00;99.90;;;;;;5066938;28;19921;-67
2023/07/03 15:44:16;;;;;;;;;;;23.30;99.90;;;;;;5058721;28;19921;-67
2023/07/03 15:46:42;;;;;;;;;;;23.60;99.90;;;;;;5047036;28;19967;-67
2023/07/03 15:49:09;;;;;;;;;;;23.90;99.90;;;;;;5046848;28;20001;-68
2023/07/03 15:51:36;;;;;;;;;;;24.10;99.90;;;;;;5063990;28;19956;-67
2023/07/03 15:54:02;;;;;;;;;;;24.30;99.90;;;;;;5052784;28;20093;-67
2023/07/03 15:56:29;;;;;;;;;;;24.60;99.70;;;;;;5046813;28;20279;-67
2023/07/03 15:58:57;;;;;;;;;;;24.70;99.40;;;;;;5047014;28;19921;-68
2023/07/03 16:01:26;;;;;;;;;;;24.70;99.30;;;;;;5066670;28;19991;-67
2023/07/03 16:03:53;;;;;;;;;;;24.70;99.20;;;;;;5058058;28;19988;-67
2023/07/03 16:06:21;;;;;;;;;;;24.70;98.90;;;;;;5059970;28;19921;-68
2023/07/03 16:08:49;;;;;;;;;;;24.70;99.10;;;;;;5065362;28;19920;-68
2023/07/03 16:11:18;;;;;;;;;;;24.50;99.60;;;;;;5058069;28;19921;-67
2023/07/03 16:13:44;;;;;;;;;;;24.50;99.70;;;;;;5051934;28;19979;-67
2023/07/03 16:16:12;;;;;;;;;;;24.40;99.40;;;;;;5050881;28;19952;-66
2023/07/03 16:18:40;;;;;;;;;;;24.20;99.70;;;;;;5066361;28;19952;-67
2023/07/03 16:21:09;;;;;;;;;;;24.10;99.90;;;;;;5066319;28;19988;-66
2023/07/03 16:23:35;;;;;;;;;;;24.00;99.40;;;;;;5061801;28;19921;-66
2023/07/03 16:26:02;;;;;;;;;;;23.80;99.80;;;;;;5046263;28;19928;-68
2023/07/03 16:28:31;;;;;;;;;;;23.70;99.90;;;;;;5062328;28;19952;-67
2023/07/03 16:30:59;;;;;;;;;;;23.60;99.60;;;;;;5066002;28;19956;-67
2023/07/03 16:33:26;;;;;;;;;;;23.70;99.90;;;;;;5065957;28;19984;-66
2023/07/03 16:35:58;;;;;;;;;;;24.00;99.90;;;;;;5065168;28;19921;-67
2023/07/03 16:38:24;;;;;;;;;;;24.10;99.80;;;;;;5065531;28;19921;-67
2023/07/03 16:40:51;;;;;;;;;;;24.10;99.90;;;;;;5065990;28;20205;-68
2023/07/03 16:43:18;;;;;;;;;;;24.00;99.90;;;;;;5066127;28;19963;-66
2023/07/03 16:45:44;;;;;;;;;;;23.90;99.90;;;;;;5056933;28;19987;-67
2023/07/03 16:48:11;;;;;;;;;;;23.90;99.90;;;;;;5045204;28;19996;-67
2023/07/03 16:50:38;;;;;;;;;;;23.90;99.90;;;;;;5051699;28;19929;-67
2023/07/03 16:53:06;;;;;;;;;;;23.80;99.90;;;;;;5063108;28;19988;-67
2023/07/03 16:55:33;;;;;;;;;;;23.70;99.90;;;;;;5060502;28;20207;-67
2023/07/03 16:58:00;;;;;;;;;;;23.80;99.90;;;;;;5050329;28;19928;-67
2023/07/03 17:00:27;;;;;;;;;;;23.60;99.90;;;;;;5085449;28;19987;-67
2023/07/03 17:02:53;;;;;;;;;;;23.50;99.90;;;;;;5072346;28;19948;-67
2023/07/03 17:05:20;;;;;;;;;;;23.40;99.90;;;;;;5065519;28;19948;-67
2023/07/03 17:07:47;;;;;;;;;;;23.20;99.90;;;;;;5062467;28;19927;-67
2023/07/03 17:10:15;;;;;;;;;;;23.10;99.90;;;;;;5058370;28;19921;-67
2023/07/03 17:12:42;;;;;;;;;;;23.00;99.90;;;;;;5064736;28;19921;-68
2023/07/03 17:15:09;;;;;;;;;;;23.10;99.90;;;;;;5063835;28;19955;-68
2023/07/03 17:17:35;;;;;;;;;;;23.20;99.90;;;;;;5058478;28;19986;-67
2023/07/03 17:20:03;;;;;;;;;;;23.30;99.90;;;;;;5061875;28;20260;-68
2023/07/03 17:22:29;;;;;;;;;;;23.40;99.90;;;;;;5045026;28;19921;-68
2023/07/03 17:24:56;;;;;;;;;;;23.60;99.90;;;;;;5056666;28;19921;-68
2023/07/03 17:27:24;;;;;;;;;;;23.70;99.90;;;;;;5065083;28;19956;-68
2023/07/03 17:29:50;;;;;;;;;;;23.90;99.90;;;;;;5064063;28;19935;-67
2023/07/03 17:32:17;;;;;;;;;;;24.00;99.90;;;;;;5052651;28;20054;-67
2023/07/03 17:34:44;;;;;;;;;;;24.10;99.90;;;;;;5061459;28;19921;-68
2023/07/03 17:37:10;;;;;;;;;;;24.10;99.90;;;;;;5047225;28;19928;-66
2023/07/03 17:39:38;;;;;;;;;;;24.10;99.90;;;;;;5044917;28;20224;-65
2023/07/03 17:42:05;;;;;;;;;;;24.00;99.70;;;;;;5044893;28;19932;-66
2023/07/03 17:44:34;;;;;;;;;;;23.80;99.70;;;;;;5044559;28;20000;-66
2023/07/03 17:47:00;;;;;;;;;;;23.60;99.90;;;;;;5044507;28;19928;-66
2023/07/03 17:49:27;;;;;;;;;;;23.50;99.90;;;;;;5044801;28;19960;-66
2023/07/03 17:51:54;;;;;;;;;;;23.40;99.90;;;;;;5044372;28;20288;-66
2023/07/03 17:54:20;;;;;;;;;;;23.30;99.90;;;;;;5043842;28;20167;-67
2023/07/03 17:56:47;;;;;;;;;;;23.10;99.90;;;;;;5044273;28;20248;-67
2023/07/03 17:59:14;;;;;;;;;;;23.00;99.90;;;;;;5044360;28;19956;-66
2023/07/03 18:01:42;;;;;;;;;;;22.80;99.90;;;;;;5043809;28;20226;-66